METAR Data
IDs: Format: Raw Decoded Include TAF

Data at: 1444 UTC 21 May 2019

KADU 210655Z AUTO 00000KT 10SM SCT060 BKN080 OVC090 09/07 A2992 RMK AO2
KADU 210635Z AUTO 00000KT 10SM SCT045 BKN050 OVC090 09/07 A2994 RMK AO2
KADU 210615Z AUTO 00000KT 10SM BKN060 OVC070 09/07 A2995 RMK AO2
KADU 210555Z AUTO 00000KT 10SM SCT050 SCT060 OVC070 09/07 A2997 RMK AO2
KADU 210535Z AUTO 00000KT 10SM SCT021 BKN050 OVC070 09/07 A2997 RMK AO2
KADU 210515Z AUTO 00000KT 10SM SCT021 SCT065 OVC080 10/07 A2998 RMK AO2
KADU 210455Z AUTO 00000KT 10SM OVC080 10/07 A2998 RMK AO2
KADU 210435Z AUTO 00000KT 10SM SCT060 OVC080 10/07 A2998 RMK AO2
KADU 210415Z AUTO 00000KT 10SM SCT060 OVC080 10/07 A2998 RMK AO2
KADU 210355Z AUTO 00000KT 10SM SCT060 SCT080 BKN110 10/07 A2999 RMK AO2
KADU 210335Z AUTO 00000KT 10SM SCT090 10/07 A2999 RMK AO2
KADU 210315Z AUTO 00000KT 10SM BKN090 10/07 A2999 RMK AO2
KADU 210255Z AUTO 00000KT 10SM SCT080 SCT100 10/07 A2998 RMK AO2
KADU 210235Z AUTO 00000KT 10SM OVC090 10/07 A2999 RMK AO2
KADU 210215Z AUTO 00000KT 10SM OVC090 10/07 A3000 RMK AO2
KADU 210155Z AUTO 00000KT 10SM -DZ OVC100 11/07 A3001 RMK AO2
KADU 210135Z AUTO 00000KT 10SM OVC100 11/07 A3003 RMK AO2
KADU 210115Z AUTO 00000KT 10SM BKN100 11/06 A3002 RMK AO2
KADU 210055Z AUTO 00000KT 10SM CLR 11/06 A3003 RMK AO2
KADU 210035Z AUTO 00000KT 10SM CLR 11/06 A3003 RMK AO2
KADU 210015Z AUTO 00000KT 10SM CLR 11/06 A3004 RMK AO2
KADU 202355Z AUTO 00000KT 10SM CLR 12/06 A3004 RMK AO2
KADU 202335Z AUTO 00000KT 10SM CLR 12/06 A3006 RMK AO2
KADU 202315Z AUTO 00000KT 10SM CLR 12/06 A3008 RMK AO2
KADU 202255Z AUTO 00000KT 10SM CLR 12/06 A3009 RMK AO2
KADU 202235Z AUTO 00000KT 10SM CLR 12/06 A3009 RMK AO2
KADU 202215Z AUTO 00000KT 10SM SCT034 12/06 A3010 RMK AO2
KADU 202155Z AUTO 00000KT 10SM SCT034 BKN100 12/06 A3011 RMK AO2
KADU 202135Z AUTO 00000KT 10SM SCT034 BKN100 12/06 A3011 RMK AO2
KADU 202115Z AUTO 00000KT 10SM SCT032 12/06 A3011 RMK AO2
KADU 202055Z AUTO 00000KT 10SM SCT032 12/06 A3012 RMK AO2
KADU 202035Z AUTO 00000KT 10SM SCT032 12/06 A3012 RMK AO2
KADU 202015Z AUTO 00000KT 10SM SCT032 12/06 A3012 RMK AO2
KADU 201955Z AUTO 00000KT 10SM SCT032 12/06 A3012 RMK AO2
KADU 201935Z AUTO 00000KT 10SM BKN032 12/06 A3014 RMK AO2
KADU 201915Z AUTO 00000KT 10SM BKN032 12/06 A3015 RMK AO2
KADU 201855Z AUTO 00000KT 10SM BKN032 12/06 A3016 RMK AO2
KADU 201835Z AUTO 00000KT 10SM SCT028 12/06 A3017 RMK AO2
KADU 201815Z AUTO 00000KT 10SM SCT028 11/06 A3016 RMK AO2
KADU 201755Z AUTO 00000KT 10SM SCT026 11/06 A3014 RMK AO2
KADU 201735Z AUTO 00000KT 10SM SCT024 11/06 A3015 RMK AO2
KADU 201715Z AUTO 00000KT 10SM BKN024 11/06 A3015 RMK AO2
KADU 201655Z AUTO 00000KT 10SM BKN024 10/05 A3017 RMK AO2
KADU 201635Z AUTO 00000KT 10SM BKN024 09/05 A3017 RMK AO2
KADU 201615Z AUTO 00000KT 10SM OVC024 09/04 A3018 RMK AO2
KADU 201555Z AUTO 00000KT 10SM BKN022 09/05 A3017 RMK AO2
KADU 201535Z AUTO 00000KT 10SM OVC020 08/04 A3018 RMK AO2
KADU 201515Z AUTO 00000KT 10SM BKN020 08/04 A3017 RMK AO2
KADU 201455Z AUTO 00000KT 10SM SCT018 08/04 A3017 RMK AO2
KADU 201435Z AUTO 00000KT 10SM SCT018 07/04 A3018 RMK AO2
KADU 201415Z AUTO 00000KT 10SM SCT016 07/03 A3017 RMK AO2
KADU 201355Z AUTO 00000KT 10SM CLR 06/03 A3016 RMK AO2
KADU 201335Z AUTO 00000KT 10SM BKN016 06/03 A3014 RMK AO2
KADU 201315Z AUTO 00000KT 10SM OVC016 06/03 A3014 RMK AO2
KADU 201255Z AUTO 00000KT 10SM OVC016 05/02 A3014 RMK AO2
KADU 201235Z AUTO 00000KT 10SM BKN018 05/02 A3013 RMK AO2
KADU 201215Z AUTO 00000KT 10SM SCT018 05/02 A3015 RMK AO2
KADU 201155Z AUTO 00000KT 10SM SCT016 04/02 A3014 RMK AO2
KADU 201135Z AUTO 00000KT 10SM BKN016 04/02 A3012 RMK AO2
KADU 201115Z AUTO 00000KT 10SM OVC016 04/02 A3013 RMK AO2
KADU 201055Z AUTO 00000KT 10SM OVC016 04/02 A3012 RMK AO2
KADU 201035Z AUTO 00000KT 10SM OVC014 04/02 A3012 RMK AO2
KADU 201015Z AUTO 00000KT 10SM OVC016 04/02 A3011 RMK AO2
KADU 200955Z AUTO 00000KT 10SM OVC016 04/02 A3011 RMK AO2
KADU 200935Z AUTO 00000KT 10SM OVC018 04/02 A3010 RMK AO2
KADU 200915Z AUTO 00000KT 10SM OVC018 04/02 A3011 RMK AO2
KADU 200855Z AUTO 00000KT 10SM OVC018 04/02 A3010 RMK AO2
KADU 200835Z AUTO 00000KT 10SM OVC018 05/02 A3009 RMK AO2
KADU 200815Z AUTO 00000KT 10SM OVC018 05/03 A3009 RMK AO2
KADU 200755Z AUTO 00000KT 10SM SCT014 BKN020 05/03 A3009 RMK AO2
KADU 200735Z AUTO 00000KT 10SM SCT014 BKN025 05/03 A3008 RMK AO2
KADU 200715Z AUTO 00000KT 10SM OVC020 06/03 A3008 RMK AO2
KADU 200655Z AUTO 00000KT 10SM OVC019 06/03 A3008 RMK AO2
KADU 200635Z AUTO 00000KT 10SM BKN014 OVC019 06/03 A3008 RMK AO2
KADU 200615Z AUTO 00000KT 5SM BR OVC012 06/04 A3008 RMK AO2
KADU 200555Z AUTO 00000KT 7SM -DZ SCT009 OVC019 06/04 A3008 RMK AO2
KADU 200535Z AUTO 00000KT 10SM OVC021 07/05 A3006 RMK AO2
KADU 200515Z AUTO 00000KT 10SM OVC023 07/05 A3005 RMK AO2
KADU 200455Z AUTO 00000KT 10SM BKN019 OVC026 08/05 A3005 RMK AO2
KADU 200435Z AUTO 00000KT 10SM SCT012 BKN026 OVC050 08/06 A3004 RMK AO2
KADU 200415Z AUTO 00000KT 10SM BKN019 BKN025 OVC050 08/06 A3003 RMK AO2
KADU 200355Z AUTO 00000KT 10SM BKN017 OVC050 08/06 A3003 RMK AO2
KADU 200335Z AUTO 00000KT 10SM BKN017 OVC033 09/07 A3002 RMK AO2
KADU 200315Z AUTO 00000KT 10SM SCT021 SCT033 OVC046 08/07 A3000 RMK AO2
KADU 200255Z AUTO 00000KT 10SM SCT024 BKN031 OVC049 08/07 A2998 RMK AO2